sensor_id;sensor_type;location;lat;lon;timestamp;temperature;humidity
34646;DHT22;20857;47.808;12.482;2023-02-28T00:00:08;-4.90;99.90
34646;DHT22;20857;47.808;12.482;2023-02-28T00:02:36;-5.20;99.90
34646;DHT22;20857;47.808;12.482;2023-02-28T00:05:01;-5.20;99.90
34646;DHT22;20857;47.808;12.482;2023-02-28T00:07:29;-5.30;99.90
34646;DHT22;20857;47.808;12.482;2023-02-28T00:09:54;-5.10;99.90
34646;DHT22;20857;47.808;12.482;2023-02-28T00:12:20;-5.10;99.90
34646;DHT22;20857;47.808;12.482;2023-02-28T00:14:45;-5.20;99.90
34646;DHT22;20857;47.808;12.482;2023-02-28T00:17:11;-5.40;99.90
34646;DHT22;20857;47.808;12.482;2023-02-28T00:19:36;-5.50;99.90
34646;DHT22;20857;47.808;12.482;2023-02-28T00:22:02;-5.50;99.90
34646;DHT22;20857;47.808;12.482;2023-02-28T00:24:27;-5.50;99.90
34646;DHT22;20857;47.808;12.482;2023-02-28T00:26:53;-5.40;99.90
34646;DHT22;20857;47.808;12.482;2023-02-28T00:29:18;-5.30;99.90
34646;DHT22;20857;47.808;12.482;2023-02-28T00:31:44;-5.30;99.90
34646;DHT22;20857;47.808;12.482;2023-02-28T00:34:09;-5.30;99.90
34646;DHT22;20857;47.808;12.482;2023-02-28T00:36:35;-5.40;99.90
34646;DHT22;20857;47.808;12.482;2023-02-28T00:39:00;-5.30;99.90
34646;DHT22;20857;47.808;12.482;2023-02-28T00:41:25;-5.30;99.90
34646;DHT22;20857;47.808;12.482;2023-02-28T00:43:51;-5.40;99.90
34646;DHT22;20857;47.808;12.482;2023-02-28T00:46:17;-5.40;99.90
34646;DHT22;20857;47.808;12.482;2023-02-28T00:48:42;-5.40;99.90
34646;DHT22;20857;47.808;12.482;2023-02-28T00:51:08;-5.50;99.90
34646;DHT22;20857;47.808;12.482;2023-02-28T00:53:34;-5.60;99.90
34646;DHT22;20857;47.808;12.482;2023-02-28T00:55:59;-5.90;99.90
34646;DHT22;20857;47.808;12.482;2023-02-28T00:58:25;-5.90;99.90
34646;DHT22;20857;47.808;12.482;2023-02-28T01:00:51;-5.90;99.90
34646;DHT22;20857;47.808;12.482;2023-02-28T01:03:17;-5.80;99.90
34646;DHT22;20857;47.808;12.482;2023-02-28T01:05:43;-5.80;99.90
34646;DHT22;20857;47.808;12.482;2023-02-28T01:08:08;-5.80;99.90
34646;DHT22;20857;47.808;12.482;2023-02-28T01:10:34;-5.70;99.90
34646;DHT22;20857;47.808;12.482;2023-02-28T01:13:01;-5.60;99.90
34646;DHT22;20857;47.808;12.482;2023-02-28T01:15:27;-5.60;99.90
34646;DHT22;20857;47.808;12.482;2023-02-28T01:17:53;-5.40;99.90
34646;DHT22;20857;47.808;12.482;2023-02-28T01:20:19;-6.10;99.90
34646;DHT22;20857;47.808;12.482;2023-02-28T01:22:46;-6.10;99.90
34646;DHT22;20857;47.808;12.482;2023-02-28T01:25:12;-6.10;99.90
34646;DHT22;20857;47.808;12.482;2023-02-28T01:27:38;-6.20;99.90
34646;DHT22;20857;47.808;12.482;2023-02-28T01:30:05;-6.40;99.90
34646;DHT22;20857;47.808;12.482;2023-02-28T01:32:31;-6.20;99.90
34646;DHT22;20857;47.808;12.482;2023-02-28T01:34:56;-6.10;99.90
34646;DHT22;20857;47.808;12.482;2023-02-28T01:37:22;-6.00;99.90
34646;DHT22;20857;47.808;12.482;2023-02-28T01:39:47;-6.10;99.90
34646;DHT22;20857;47.808;12.482;2023-02-28T01:42:12;-5.90;99.90
34646;DHT22;20857;47.808;12.482;2023-02-28T01:47:22;-5.70;99.90
34646;DHT22;20857;47.808;12.482;2023-02-28T01:49:48;-5.60;99.90
34646;DHT22;20857;47.808;12.482;2023-02-28T01:52:14;-5.80;99.90
34646;DHT22;20857;47.808;12.482;2023-02-28T01:54:44;-5.90;99.90
34646;DHT22;20857;47.808;12.482;2023-02-28T01:57:11;-6.00;99.90
34646;DHT22;20857;47.808;12.482;2023-02-28T01:59:48;-6.10;99.90
34646;DHT22;20857;47.808;12.482;2023-02-28T02:02:16;-6.30;99.90
34646;DHT22;20857;47.808;12.482;2023-02-28T02:04:46;-6.50;99.90
34646;DHT22;20857;47.808;12.482;2023-02-28T02:07:15;-6.70;99.90
34646;DHT22;20857;47.808;12.482;2023-02-28T02:09:41;-7.10;99.90
34646;DHT22;20857;47.808;12.482;2023-02-28T02:12:25;-7.20;99.90
34646;DHT22;20857;47.808;12.482;2023-02-28T02:17:33;-7.10;99.90
34646;DHT22;20857;47.808;12.482;2023-02-28T02:28:13;-7.00;99.90
34646;DHT22;20857;47.808;12.482;2023-02-28T02:35:52;-7.30;99.90
34646;DHT22;20857;47.808;12.482;2023-02-28T02:40:53;-7.10;99.90
34646;DHT22;20857;47.808;12.482;2023-02-28T02:43:22;-6.90;99.90
34646;DHT22;20857;47.808;12.482;2023-02-28T02:46:02;-6.80;99.90
34646;DHT22;20857;47.808;12.482;2023-02-28T02:48:30;-6.80;99.90
34646;DHT22;20857;47.808;12.482;2023-02-28T02:50:58;-6.70;99.90
34646;DHT22;20857;47.808;12.482;2023-02-28T02:53:29;-6.70;99.90
34646;DHT22;20857;47.808;12.482;2023-02-28T02:55:55;-6.70;99.90
34646;DHT22;20857;47.808;12.482;2023-02-28T02:58:24;-7.00;99.90
34646;DHT22;20857;47.808;12.482;2023-02-28T03:00:53;-7.10;99.90
34646;DHT22;20857;47.808;12.482;2023-02-28T03:03:20;-7.00;99.90
34646;DHT22;20857;47.808;12.482;2023-02-28T03:05:54;-7.00;99.90
34646;DHT22;20857;47.808;12.482;2023-02-28T03:08:20;-7.00;99.90
34646;DHT22;20857;47.808;12.482;2023-02-28T03:10:46;-6.90;99.90
34646;DHT22;20857;47.808;12.482;2023-02-28T03:13:23;-6.90;99.90
34646;DHT22;20857;47.808;12.482;2023-02-28T03:16:05;-6.90;99.90
34646;DHT22;20857;47.808;12.482;2023-02-28T03:21:38;-6.90;99.90
34646;DHT22;20857;47.808;12.482;2023-02-28T03:24:08;-6.90;99.90
34646;DHT22;20857;47.808;12.482;2023-02-28T03:26:36;-6.90;99.90
34646;DHT22;20857;47.808;12.482;2023-02-28T03:31:36;-6.90;99.90
34646;DHT22;20857;47.808;12.482;2023-02-28T03:36:53;-6.90;99.90
34646;DHT22;20857;47.808;12.482;2023-02-28T03:39:21;-6.90;99.90
34646;DHT22;20857;47.808;12.482;2023-02-28T03:41:50;-6.90;99.90
34646;DHT22;20857;47.808;12.482;2023-02-28T03:44:21;-7.20;99.90
34646;DHT22;20857;47.808;12.482;2023-02-28T03:46:52;-7.50;99.90
34646;DHT22;20857;47.808;12.482;2023-02-28T03:49:19;-7.70;99.90
34646;DHT22;20857;47.808;12.482;2023-02-28T03:51:45;-8.40;99.90
34646;DHT22;20857;47.808;12.482;2023-02-28T03:54:13;-8.60;99.90
34646;DHT22;20857;47.808;12.482;2023-02-28T03:56:45;-8.20;99.90
34646;DHT22;20857;47.808;12.482;2023-02-28T03:59:13;-8.10;99.90
34646;DHT22;20857;47.808;12.482;2023-02-28T04:01:45;-7.80;99.90
34646;DHT22;20857;47.808;12.482;2023-02-28T04:04:12;-7.50;99.90
34646;DHT22;20857;47.808;12.482;2023-02-28T04:06:38;-7.30;99.90
34646;DHT22;20857;47.808;12.482;2023-02-28T04:09:04;-7.20;99.90
34646;DHT22;20857;47.808;12.482;2023-02-28T04:13:55;-7.10;99.90
34646;DHT22;20857;47.808;12.482;2023-02-28T04:16:21;-7.20;99.90
34646;DHT22;20857;47.808;12.482;2023-02-28T04:18:46;-7.00;99.90
34646;DHT22;20857;47.808;12.482;2023-02-28T04:21:12;-7.00;99.90
34646;DHT22;20857;47.808;12.482;2023-02-28T04:23:38;-7.20;99.90
34646;DHT22;20857;47.808;12.482;2023-02-28T04:26:03;-7.40;99.90
34646;DHT22;20857;47.808;12.482;2023-02-28T04:28:29;-7.10;99.90
34646;DHT22;20857;47.808;12.482;2023-02-28T04:31:01;-7.80;99.90
34646;DHT22;20857;47.808;12.482;2023-02-28T04:33:27;-8.20;99.90
34646;DHT22;20857;47.808;12.482;2023-02-28T04:35:59;-8.30;99.90
34646;DHT22;20857;47.808;12.482;2023-02-28T04:38:25;-8.20;99.90
34646;DHT22;20857;47.808;12.482;2023-02-28T04:40:50;-8.10;99.90
34646;DHT22;20857;47.808;12.482;2023-02-28T04:43:15;-7.80;99.90
34646;DHT22;20857;47.808;12.482;2023-02-28T04:45:41;-7.90;99.90
34646;DHT22;20857;47.808;12.482;2023-02-28T04:48:06;-7.80;99.90
34646;DHT22;20857;47.808;12.482;2023-02-28T04:50:32;-7.50;99.90
34646;DHT22;20857;47.808;12.482;2023-02-28T04:52:58;-7.60;99.90
34646;DHT22;20857;47.808;12.482;2023-02-28T04:55:23;-7.40;99.90
34646;DHT22;20857;47.808;12.482;2023-02-28T04:57:49;-7.40;99.90
34646;DHT22;20857;47.808;12.482;2023-02-28T05:00:14;-7.40;99.90
34646;DHT22;20857;47.808;12.482;2023-02-28T05:02:42;-7.30;99.90
34646;DHT22;20857;47.808;12.482;2023-02-28T05:05:07;-7.20;99.90
34646;DHT22;20857;47.808;12.482;2023-02-28T05:07:33;-7.30;99.90
34646;DHT22;20857;47.808;12.482;2023-02-28T05:09:58;-7.40;99.90
34646;DHT22;20857;47.808;12.482;2023-02-28T05:12:24;-7.40;99.90
34646;DHT22;20857;47.808;12.482;2023-02-28T05:14:50;-7.60;99.90
34646;DHT22;20857;47.808;12.482;2023-02-28T05:17:15;-7.70;99.90
34646;DHT22;20857;47.808;12.482;2023-02-28T05:19:41;-7.80;99.90
34646;DHT22;20857;47.808;12.482;2023-02-28T05:22:10;-8.00;99.90
34646;DHT22;20857;47.808;12.482;2023-02-28T05:24:37;-8.30;99.90
34646;DHT22;20857;47.808;12.482;2023-02-28T05:27:03;-8.30;99.90
34646;DHT22;20857;47.808;12.482;2023-02-28T05:29:28;-8.30;99.90
34646;DHT22;20857;47.808;12.482;2023-02-28T05:31:54;-8.10;99.90
34646;DHT22;20857;47.808;12.482;2023-02-28T05:34:19;-8.10;99.90
34646;DHT22;20857;47.808;12.482;2023-02-28T05:36:45;-8.20;99.90
34646;DHT22;20857;47.808;12.482;2023-02-28T05:39:10;-8.20;99.90
34646;DHT22;20857;47.808;12.482;2023-02-28T05:41:38;-8.30;99.90
34646;DHT22;20857;47.808;12.482;2023-02-28T05:44:04;-8.60;99.90
34646;DHT22;20857;47.808;12.482;2023-02-28T05:46:29;-8.50;99.90
34646;DHT22;20857;47.808;12.482;2023-02-28T05:48:55;-8.40;99.90
34646;DHT22;20857;47.808;12.482;2023-02-28T05:51:22;-8.20;99.90
34646;DHT22;20857;47.808;12.482;2023-02-28T05:53:48;-8.10;99.90
34646;DHT22;20857;47.808;12.482;2023-02-28T05:56:14;-7.90;99.90
34646;DHT22;20857;47.808;12.482;2023-02-28T05:58:40;-7.80;99.90
34646;DHT22;20857;47.808;12.482;2023-02-28T06:03:46;-7.70;99.90
34646;DHT22;20857;47.808;12.482;2023-02-28T06:06:11;-7.70;99.90
34646;DHT22;20857;47.808;12.482;2023-02-28T06:08:37;-7.70;99.90
34646;DHT22;20857;47.808;12.482;2023-02-28T06:11:03;-7.80;99.90
34646;DHT22;20857;47.808;12.482;2023-02-28T06:13:28;-7.80;99.90
34646;DHT22;20857;47.808;12.482;2023-02-28T06:15:54;-7.80;99.90
34646;DHT22;20857;47.808;12.482;2023-02-28T06:18:19;-8.00;99.90
34646;DHT22;20857;47.808;12.482;2023-02-28T06:20:51;-7.70;99.90
34646;DHT22;20857;47.808;12.482;2023-02-28T06:23:18;-7.70;99.90
34646;DHT22;20857;47.808;12.482;2023-02-28T06:25:46;-7.70;99.90
34646;DHT22;20857;47.808;12.482;2023-02-28T06:28:12;-7.60;99.90
34646;DHT22;20857;47.808;12.482;2023-02-28T06:30:38;-7.40;99.90
34646;DHT22;20857;47.808;12.482;2023-02-28T06:33:04;-7.30;99.90
34646;DHT22;20857;47.808;12.482;2023-02-28T06:35:30;-7.50;99.90
34646;DHT22;20857;47.808;12.482;2023-02-28T06:37:55;-7.20;99.90
34646;DHT22;20857;47.808;12.482;2023-02-28T06:40:21;-7.20;99.90
34646;DHT22;20857;47.808;12.482;2023-02-28T06:42:46;-7.30;99.90
34646;DHT22;20857;47.808;12.482;2023-02-28T06:45:12;-7.00;99.90
34646;DHT22;20857;47.808;12.482;2023-02-28T06:47:38;-7.00;99.90
34646;DHT22;20857;47.808;12.482;2023-02-28T06:50:04;-7.00;99.90
34646;DHT22;20857;47.808;12.482;2023-02-28T06:52:30;-7.00;99.90
34646;DHT22;20857;47.808;12.482;2023-02-28T06:54:56;-7.00;99.90
34646;DHT22;20857;47.808;12.482;2023-02-28T06:57:28;-6.80;99.90
34646;DHT22;20857;47.808;12.482;2023-02-28T06:59:57;-6.60;99.90
34646;DHT22;20857;47.808;12.482;2023-02-28T07:02:22;-6.40;99.90
34646;DHT22;20857;47.808;12.482;2023-02-28T07:04:48;-6.30;99.90
34646;DHT22;20857;47.808;12.482;2023-02-28T07:07:13;-6.30;99.90
34646;DHT22;20857;47.808;12.482;2023-02-28T07:09:38;-6.20;99.90
34646;DHT22;20857;47.808;12.482;2023-02-28T07:12:04;-6.10;99.90
34646;DHT22;20857;47.808;12.482;2023-02-28T07:14:30;-6.10;99.90
34646;DHT22;20857;47.808;12.482;2023-02-28T07:16:55;-6.00;99.90
34646;DHT22;20857;47.808;12.482;2023-02-28T07:19:20;-6.20;99.90
34646;DHT22;20857;47.808;12.482;2023-02-28T07:21:46;-6.30;99.90
34646;DHT22;20857;47.808;12.482;2023-02-28T07:24:11;-6.00;99.90
34646;DHT22;20857;47.808;12.482;2023-02-28T07:26:37;-5.80;99.90
34646;DHT22;20857;47.808;12.482;2023-02-28T07:29:04;-5.50;99.90
34646;DHT22;20857;47.808;12.482;2023-02-28T07:31:29;-5.30;99.90
34646;DHT22;20857;47.808;12.482;2023-02-28T07:33:55;-5.00;99.90
34646;DHT22;20857;47.808;12.482;2023-02-28T07:36:21;-5.00;99.90
34646;DHT22;20857;47.808;12.482;2023-02-28T07:38:47;-4.80;99.90
34646;DHT22;20857;47.808;12.482;2023-02-28T07:41:14;-4.70;99.90
34646;DHT22;20857;47.808;12.482;2023-02-28T07:43:39;-4.50;99.90
34646;DHT22;20857;47.808;12.482;2023-02-28T07:46:06;-4.40;99.90
34646;DHT22;20857;47.808;12.482;2023-02-28T07:48:32;-4.30;99.90
34646;DHT22;20857;47.808;12.482;2023-02-28T07:50:58;-4.10;99.90
34646;DHT22;20857;47.808;12.482;2023-02-28T07:53:24;-4.00;99.90
34646;DHT22;20857;47.808;12.482;2023-02-28T07:55:49;-4.00;99.90
34646;DHT22;20857;47.808;12.482;2023-02-28T07:58:15;-4.00;99.90
34646;DHT22;20857;47.808;12.482;2023-02-28T08:00:40;-3.90;99.90
34646;DHT22;20857;47.808;12.482;2023-02-28T08:03:06;-3.70;99.90
34646;DHT22;20857;47.808;12.482;2023-02-28T08:05:31;-3.70;99.90
34646;DHT22;20857;47.808;12.482;2023-02-28T08:07:57;-3.60;99.90
34646;DHT22;20857;47.808;12.482;2023-02-28T08:10:22;-3.40;99.90
34646;DHT22;20857;47.808;12.482;2023-02-28T08:12:49;-3.40;99.90
34646;DHT22;20857;47.808;12.482;2023-02-28T08:15:14;-3.40;99.90
34646;DHT22;20857;47.808;12.482;2023-02-28T08:17:40;-3.20;99.90
34646;DHT22;20857;47.808;12.482;2023-02-28T08:20:05;-3.40;99.90
34646;DHT22;20857;47.808;12.482;2023-02-28T08:22:31;-3.30;99.90
34646;DHT22;20857;47.808;12.482;2023-02-28T08:24:57;-3.40;99.90
34646;DHT22;20857;47.808;12.482;2023-02-28T08:27:22;-3.30;99.90
34646;DHT22;20857;47.808;12.482;2023-02-28T08:29:48;-3.10;99.90
34646;DHT22;20857;47.808;12.482;2023-02-28T08:32:13;-3.10;99.90
34646;DHT22;20857;47.808;12.482;2023-02-28T08:34:39;-2.80;99.90
34646;DHT22;20857;47.808;12.482;2023-02-28T08:37:05;-2.70;99.90
34646;DHT22;20857;47.808;12.482;2023-02-28T08:39:34;-2.60;99.90
34646;DHT22;20857;47.808;12.482;2023-02-28T08:41:59;-2.40;99.90
34646;DHT22;20857;47.808;12.482;2023-02-28T08:44:25;-2.30;99.90
34646;DHT22;20857;47.808;12.482;2023-02-28T08:46:50;-2.50;99.90
34646;DHT22;20857;47.808;12.482;2023-02-28T08:49:16;-2.40;99.90
34646;DHT22;20857;47.808;12.482;2023-02-28T08:51:41;-2.00;99.90
34646;DHT22;20857;47.808;12.482;2023-02-28T08:54:07;-1.90;99.90
34646;DHT22;20857;47.808;12.482;2023-02-28T08:56:33;-1.80;99.90
34646;DHT22;20857;47.808;12.482;2023-02-28T08:58:58;-1.90;99.90
34646;DHT22;20857;47.808;12.482;2023-02-28T09:01:25;-1.90;99.90
34646;DHT22;20857;47.808;12.482;2023-02-28T09:03:52;-1.80;99.90
34646;DHT22;20857;47.808;12.482;2023-02-28T09:06:19;-1.70;99.90
34646;DHT22;20857;47.808;12.482;2023-02-28T09:08:45;-1.10;99.90
34646;DHT22;20857;47.808;12.482;2023-02-28T09:11:10;-1.60;99.90
34646;DHT22;20857;47.808;12.482;2023-02-28T09:13:36;-1.50;99.90
34646;DHT22;20857;47.808;12.482;2023-02-28T09:16:03;-1.40;99.90
34646;DHT22;20857;47.808;12.482;2023-02-28T09:18:28;-1.30;99.90
34646;DHT22;20857;47.808;12.482;2023-02-28T09:20:54;-1.20;99.90
34646;DHT22;20857;47.808;12.482;2023-02-28T09:23:20;-1.20;99.90
34646;DHT22;20857;47.808;12.482;2023-02-28T09:25:46;-1.00;99.90
34646;DHT22;20857;47.808;12.482;2023-02-28T09:28:12;-0.80;99.90
34646;DHT22;20857;47.808;12.482;2023-02-28T09:30:37;-0.80;99.90
34646;DHT22;20857;47.808;12.482;2023-02-28T09:33:03;-0.40;99.90
34646;DHT22;20857;47.808;12.482;2023-02-28T09:35:29;-0.40;99.90
34646;DHT22;20857;47.808;12.482;2023-02-28T09:37:55;-0.20;99.90
34646;DHT22;20857;47.808;12.482;2023-02-28T09:40:22;-0.20;99.90
34646;DHT22;20857;47.808;12.482;2023-02-28T09:42:49;-0.20;99.90
34646;DHT22;20857;47.808;12.482;2023-02-28T09:45:20;0.10;99.90
34646;DHT22;20857;47.808;12.482;2023-02-28T09:47:47;0.10;99.90
34646;DHT22;20857;47.808;12.482;2023-02-28T09:52:41;0.60;99.90
34646;DHT22;20857;47.808;12.482;2023-02-28T09:55:28;0.60;99.90
34646;DHT22;20857;47.808;12.482;2023-02-28T09:57:55;0.60;99.90
34646;DHT22;20857;47.808;12.482;2023-02-28T10:00:24;0.90;99.90
34646;DHT22;20857;47.808;12.482;2023-02-28T10:05:41;1.10;99.90
34646;DHT22;20857;47.808;12.482;2023-02-28T10:08:17;1.50;99.90
34646;DHT22;20857;47.808;12.482;2023-02-28T10:10:47;1.40;99.90
34646;DHT22;20857;47.808;12.482;2023-02-28T10:13:22;1.60;99.90
34646;DHT22;20857;47.808;12.482;2023-02-28T10:15:50;1.90;99.90
34646;DHT22;20857;47.808;12.482;2023-02-28T10:18:18;1.90;99.90
34646;DHT22;20857;47.808;12.482;2023-02-28T10:20:45;2.00;99.90
34646;DHT22;20857;47.808;12.482;2023-02-28T10:25:41;1.90;99.90
34646;DHT22;20857;47.808;12.482;2023-02-28T10:28:14;2.00;99.90
34646;DHT22;20857;47.808;12.482;2023-02-28T10:30:41;2.40;99.90
34646;DHT22;20857;47.808;12.482;2023-02-28T10:33:29;3.00;99.90
34646;DHT22;20857;47.808;12.482;2023-02-28T10:35:53;4.10;99.90
34646;DHT22;20857;47.808;12.482;2023-02-28T10:38:37;3.20;99.90
34646;DHT22;20857;47.808;12.482;2023-02-28T10:41:05;3.20;99.90
34646;DHT22;20857;47.808;12.482;2023-02-28T10:43:30;3.10;99.90
34646;DHT22;20857;47.808;12.482;2023-02-28T10:48:38;2.60;99.90
34646;DHT22;20857;47.808;12.482;2023-02-28T10:51:04;2.30;99.90
34646;DHT22;20857;47.808;12.482;2023-02-28T10:53:37;1.90;99.90
34646;DHT22;20857;47.808;12.482;2023-02-28T10:58:44;1.90;99.90
34646;DHT22;20857;47.808;12.482;2023-02-28T11:01:15;2.20;99.90
34646;DHT22;20857;47.808;12.482;2023-02-28T11:03:41;2.30;99.90
34646;DHT22;20857;47.808;12.482;2023-02-28T11:06:07;2.10;99.90
34646;DHT22;20857;47.808;12.482;2023-02-28T11:08:33;1.80;99.90
34646;DHT22;20857;47.808;12.482;2023-02-28T11:11:02;1.80;99.90
34646;DHT22;20857;47.808;12.482;2023-02-28T11:13:33;1.60;99.90
34646;DHT22;20857;47.808;12.482;2023-02-28T11:16:00;1.50;99.90
34646;DHT22;20857;47.808;12.482;2023-02-28T11:18:30;1.70;99.90
34646;DHT22;20857;47.808;12.482;2023-02-28T11:20:56;2.10;99.90
34646;DHT22;20857;47.808;12.482;2023-02-28T11:23:24;1.70;99.90
34646;DHT22;20857;47.808;12.482;2023-02-28T11:25:51;1.90;99.90
34646;DHT22;20857;47.808;12.482;2023-02-28T11:31:00;1.90;99.90
34646;DHT22;20857;47.808;12.482;2023-02-28T11:33:30;1.70;99.90
34646;DHT22;20857;47.808;12.482;2023-02-28T11:36:03;1.80;99.90
34646;DHT22;20857;47.808;12.482;2023-02-28T11:38:30;2.20;99.90
34646;DHT22;20857;47.808;12.482;2023-02-28T11:43:33;3.20;99.90
34646;DHT22;20857;47.808;12.482;2023-02-28T11:51:06;2.80;99.90
34646;DHT22;20857;47.808;12.482;2023-02-28T11:58:45;2.90;99.90
34646;DHT22;20857;47.808;12.482;2023-02-28T12:01:18;3.00;99.90
34646;DHT22;20857;47.808;12.482;2023-02-28T12:06:54;3.00;99.90
34646;DHT22;20857;47.808;12.482;2023-02-28T12:11:55;2.80;99.90
34646;DHT22;20857;47.808;12.482;2023-02-28T12:19:33;3.20;99.90
34646;DHT22;20857;47.808;12.482;2023-02-28T12:22:20;3.60;99.90
34646;DHT22;20857;47.808;12.482;2023-02-28T12:24:50;4.00;99.90
34646;DHT22;20857;47.808;12.482;2023-02-28T12:27:21;4.00;99.90
34646;DHT22;20857;47.808;12.482;2023-02-28T12:32:25;4.40;99.90
34646;DHT22;20857;47.808;12.482;2023-02-28T12:34:53;4.00;99.90
34646;DHT22;20857;47.808;12.482;2023-02-28T12:37:31;4.00;99.90
34646;DHT22;20857;47.808;12.482;2023-02-28T12:40:03;3.80;99.90
34646;DHT22;20857;47.808;12.482;2023-02-28T12:42:34;3.80;99.90
34646;DHT22;20857;47.808;12.482;2023-02-28T12:45:02;3.80;99.90
34646;DHT22;20857;47.808;12.482;2023-02-28T12:47:32;3.70;99.90
34646;DHT22;20857;47.808;12.482;2023-02-28T12:50:07;3.70;99.90
34646;DHT22;20857;47.808;12.482;2023-02-28T12:57:41;4.00;99.90
34646;DHT22;20857;47.808;12.482;2023-02-28T13:00:18;3.90;99.90
34646;DHT22;20857;47.808;12.482;2023-02-28T13:08:24;3.40;99.90
34646;DHT22;20857;47.808;12.482;2023-02-28T13:10:53;3.60;99.90
34646;DHT22;20857;47.808;12.482;2023-02-28T13:13:23;4.00;99.90
34646;DHT22;20857;47.808;12.482;2023-02-28T13:18:34;4.10;99.90
34646;DHT22;20857;47.808;12.482;2023-02-28T13:21:02;4.10;99.90
34646;DHT22;20857;47.808;12.482;2023-02-28T13:26:06;4.10;99.90
34646;DHT22;20857;47.808;12.482;2023-02-28T13:31:16;3.90;99.90
34646;DHT22;20857;47.808;12.482;2023-02-28T13:44:08;4.20;99.90
34646;DHT22;20857;47.808;12.482;2023-02-28T14:05:18;2.80;99.90
34646;DHT22;20857;47.808;12.482;2023-02-28T14:07:47;3.50;99.90
34646;DHT22;20857;47.808;12.482;2023-02-28T14:18:11;4.10;99.90
34646;DHT22;20857;47.808;12.482;2023-02-28T14:20:38;4.30;99.90
34646;DHT22;20857;47.808;12.482;2023-02-28T14:25:59;4.40;99.90
34646;DHT22;20857;47.808;12.482;2023-02-28T14:28:50;5.50;99.90
34646;DHT22;20857;47.808;12.482;2023-02-28T14:31:24;4.40;99.90
34646;DHT22;20857;47.808;12.482;2023-02-28T14:36:52;4.50;99.90
34646;DHT22;20857;47.808;12.482;2023-02-28T14:39:12;4.60;99.90
34646;DHT22;20857;47.808;12.482;2023-02-28T14:41:39;4.60;99.90
34646;DHT22;20857;47.808;12.482;2023-02-28T14:44:16;4.40;99.90
34646;DHT22;20857;47.808;12.482;2023-02-28T14:46:42;4.20;99.90
34646;DHT22;20857;47.808;12.482;2023-02-28T14:49:21;4.20;99.90
34646;DHT22;20857;47.808;12.482;2023-02-28T14:52:01;4.20;99.90
34646;DHT22;20857;47.808;12.482;2023-02-28T14:54:27;4.20;99.90
34646;DHT22;20857;47.808;12.482;2023-02-28T14:56:52;4.10;99.90
34646;DHT22;20857;47.808;12.482;2023-02-28T14:59:23;4.10;99.90
34646;DHT22;20857;47.808;12.482;2023-02-28T15:01:49;4.00;99.90
34646;DHT22;20857;47.808;12.482;2023-02-28T15:04:18;3.80;99.90
34646;DHT22;20857;47.808;12.482;2023-02-28T15:06:46;3.80;99.90
34646;DHT22;20857;47.808;12.482;2023-02-28T15:09:17;3.80;99.90
34646;DHT22;20857;47.808;12.482;2023-02-28T15:11:47;3.70;99.90
34646;DHT22;20857;47.808;12.482;2023-02-28T15:14:17;3.70;99.90
34646;DHT22;20857;47.808;12.482;2023-02-28T15:16:44;3.90;99.90
34646;DHT22;20857;47.808;12.482;2023-02-28T15:21:43;4.50;99.90
34646;DHT22;20857;47.808;12.482;2023-02-28T15:24:44;4.30;99.90
34646;DHT22;20857;47.808;12.482;2023-02-28T15:27:03;4.40;99.90
34646;DHT22;20857;47.808;12.482;2023-02-28T15:29:29;4.40;99.90
34646;DHT22;20857;47.808;12.482;2023-02-28T15:32:01;4.10;99.90
34646;DHT22;20857;47.808;12.482;2023-02-28T15:36:55;4.00;99.90
34646;DHT22;20857;47.808;12.482;2023-02-28T15:39:22;3.70;99.90
34646;DHT22;20857;47.808;12.482;2023-02-28T15:41:47;3.80;99.90
34646;DHT22;20857;47.808;12.482;2023-02-28T15:46:53;4.40;99.90
34646;DHT22;20857;47.808;12.482;2023-02-28T15:49:20;4.50;99.90
34646;DHT22;20857;47.808;12.482;2023-02-28T15:51:46;4.80;99.90
34646;DHT22;20857;47.808;12.482;2023-02-28T15:54:19;5.00;99.90
34646;DHT22;20857;47.808;12.482;2023-02-28T15:56:46;5.40;99.90
34646;DHT22;20857;47.808;12.482;2023-02-28T15:59:14;5.50;99.90
34646;DHT22;20857;47.808;12.482;2023-02-28T16:01:40;5.70;99.90
34646;DHT22;20857;47.808;12.482;2023-02-28T16:04:16;5.30;99.90
34646;DHT22;20857;47.808;12.482;2023-02-28T16:09:11;4.50;99.90
34646;DHT22;20857;47.808;12.482;2023-02-28T16:11:42;3.20;99.90
34646;DHT22;20857;47.808;12.482;2023-02-28T16:14:11;2.70;99.90
34646;DHT22;20857;47.808;12.482;2023-02-28T16:16:41;2.10;99.90
34646;DHT22;20857;47.808;12.482;2023-02-28T16:19:07;2.00;99.90
34646;DHT22;20857;47.808;12.482;2023-02-28T16:21:33;1.60;99.90
34646;DHT22;20857;47.808;12.482;2023-02-28T16:24:01;1.50;99.90
34646;DHT22;20857;47.808;12.482;2023-02-28T16:26:26;1.40;99.90
34646;DHT22;20857;47.808;12.482;2023-02-28T16:28:53;1.20;99.90
34646;DHT22;20857;47.808;12.482;2023-02-28T16:31:19;1.10;99.90
34646;DHT22;20857;47.808;12.482;2023-02-28T16:33:45;1.00;99.90
34646;DHT22;20857;47.808;12.482;2023-02-28T16:36:19;0.90;99.90
34646;DHT22;20857;47.808;12.482;2023-02-28T16:38:44;0.80;99.90
34646;DHT22;20857;47.808;12.482;2023-02-28T16:41:12;0.60;99.90
34646;DHT22;20857;47.808;12.482;2023-02-28T16:43:41;0.60;99.90
34646;DHT22;20857;47.808;12.482;2023-02-28T16:46:09;0.50;99.90
34646;DHT22;20857;47.808;12.482;2023-02-28T16:48:35;0.50;99.90
34646;DHT22;20857;47.808;12.482;2023-02-28T16:51:01;0.40;99.90
34646;DHT22;20857;47.808;12.482;2023-02-28T16:53:29;0.20;99.90
34646;DHT22;20857;47.808;12.482;2023-02-28T16:55:55;0.30;99.90
34646;DHT22;20857;47.808;12.482;2023-02-28T16:58:20;0.20;99.90
34646;DHT22;20857;47.808;12.482;2023-02-28T17:00:48;0.20;99.90
34646;DHT22;20857;47.808;12.482;2023-02-28T17:03:24;0.30;99.90
34646;DHT22;20857;47.808;12.482;2023-02-28T17:05:50;0.30;99.90
34646;DHT22;20857;47.808;12.482;2023-02-28T17:08:15;0.20;99.90
34646;DHT22;20857;47.808;12.482;2023-02-28T17:10:41;0.20;99.90
34646;DHT22;20857;47.808;12.482;2023-02-28T17:13:07;0.20;99.90
34646;DHT22;20857;47.808;12.482;2023-02-28T17:15:33;0.10;99.90
34646;DHT22;20857;47.808;12.482;2023-02-28T17:17:59;0.00;99.90
34646;DHT22;20857;47.808;12.482;2023-02-28T17:20:25;-0.20;99.90
34646;DHT22;20857;47.808;12.482;2023-02-28T17:22:55;-0.20;99.90
34646;DHT22;20857;47.808;12.482;2023-02-28T17:25:21;-0.30;99.90
34646;DHT22;20857;47.808;12.482;2023-02-28T17:27:47;-0.20;99.90
34646;DHT22;20857;47.808;12.482;2023-02-28T17:30:20;-0.30;99.90
34646;DHT22;20857;47.808;12.482;2023-02-28T17:32:45;-0.20;99.90
34646;DHT22;20857;47.808;12.482;2023-02-28T17:35:11;1.60;99.90
34646;DHT22;20857;47.808;12.482;2023-02-28T17:37:37;-0.10;99.90
34646;DHT22;20857;47.808;12.482;2023-02-28T17:40:03;0.00;99.90
34646;DHT22;20857;47.808;12.482;2023-02-28T17:42:28;-0.10;99.90
34646;DHT22;20857;47.808;12.482;2023-02-28T17:44:54;-0.10;99.90
34646;DHT22;20857;47.808;12.482;2023-02-28T17:47:19;0.00;99.90
34646;DHT22;20857;47.808;12.482;2023-02-28T17:49:45;0.10;99.90
34646;DHT22;20857;47.808;12.482;2023-02-28T17:52:10;0.10;99.90